Time;durP1;ratioP1;P1;durP2;ratioP2;P2;SDS_P1;SDS_P2;PMS_P1;PMS_P2;Temp;Humidity;BMP_temperature;BMP_pressure;BME280_temperature;BME280_humidity;BME280_pressure;Samples;Min_cycle;Max_cycle;Signal;HPM_P1;HPM_P2
2024/03/18 00:00:38;;;;;;;8.10;4.60;;;;;;;7.60;83.71;99348.29;78166;1300;3028850;-58
2024/03/18 00:03:05;;;;;;;9.30;5.10;;;;;;;7.80;83.04;99342.59;79231;1308;3018772;-57
2024/03/18 00:05:32;;;;;;;8.80;5.20;;;;;;;7.55;83.39;99342.97;79235;1303;3013585;-58
2024/03/18 00:08:00;;;;;;;8.80;6.00;;;;;;;7.30;84.43;99342.45;78013;1301;3027961;-59
2024/03/18 00:10:26;;;;;;;7.90;5.20;;;;;;;7.18;85.05;99342.35;79370;1301;3018714;-57
2024/03/18 00:12:53;;;;;;;10.40;5.90;;;;;;;7.01;85.90;99341.42;79231;1296;3013716;-58
2024/03/18 00:15:21;;;;;;;10.30;6.10;;;;;;;6.88;86.36;99346.39;78115;1299;3028632;-60
2024/03/18 00:17:48;;;;;;;7.80;4.90;;;;;;;6.89;86.95;99342.85;79360;1298;3013471;-58
2024/03/18 00:20:15;;;;;;;8.50;5.10;;;;;;;7.33;85.60;99336.95;79279;1300;3011494;-59
2024/03/18 00:22:43;;;;;;;9.60;5.00;;;;;;;7.89;83.19;99330.46;78102;1301;3028843;-60
2024/03/18 00:25:11;;;;;;;9.00;5.20;;;;;;;7.76;82.31;99331.98;79426;1301;3012825;-58
2024/03/18 00:27:38;;;;;;;8.30;5.10;;;;;;;7.39;83.91;99332.63;79370;1296;3011662;-57
2024/03/18 00:30:07;;;;;;;10.50;5.80;;;;;;;7.21;84.60;99330.38;78076;1301;3050457;-60
2024/03/18 00:32:34;;;;;;;10.00;5.70;;;;;;;7.15;85.46;99330.13;79485;1300;3011650;-60
2024/03/18 00:35:01;;;;;;;10.10;5.50;;;;;;;7.02;85.75;99340.52;79434;1295;3013396;-58
2024/03/18 00:37:29;;;;;;;8.60;5.40;;;;;;;6.78;87.02;99337.98;78157;1300;3052291;-59
2024/03/18 00:39:55;;;;;;;9.00;4.70;;;;;;;6.70;87.89;99334.35;79397;1302;3012772;-58
2024/03/18 00:42:22;;;;;;;8.40;5.10;;;;;;;7.20;86.36;99328.84;79266;1300;3011925;-60
2024/03/18 00:44:51;;;;;;;9.70;5.60;;;;;;;7.40;85.32;99322.84;78102;1301;3028018;-57
2024/03/18 00:47:18;;;;;;;8.30;5.10;;;;;;;7.53;84.42;99320.77;79391;1301;3011749;-59
2024/03/18 00:49:44;;;;;;;7.80;5.20;;;;;;;7.56;83.50;99321.31;79356;1301;3011342;-58
2024/03/18 00:52:12;;;;;;;9.40;5.40;;;;;;;7.43;83.76;99318.66;78252;1295;3052649;-58
2024/03/18 00:54:39;;;;;;;10.00;6.00;;;;;;;7.31;84.03;99312.46;79283;1295;3018449;-58
2024/03/18 00:57:06;;;;;;;9.80;6.30;;;;;;;7.19;84.74;99317.08;79444;1302;3012261;-57
2024/03/18 00:59:34;;;;;;;10.90;5.80;;;;;;;7.08;84.75;99317.77;77946;1301;3027952;-58
2024/03/18 01:02:01;;;;;;;8.20;4.80;;;;;;;6.90;86.19;99320.86;79253;1302;3013071;-59
2024/03/18 01:04:28;;;;;;;8.80;5.30;;;;;;;7.33;85.47;99320.88;79410;1301;3011599;-58
2024/03/18 01:07:00;;;;;;;8.90;5.20;;;;;;;7.82;82.96;99315.13;78227;1299;3052834;-58
2024/03/18 01:09:28;;;;;;;8.50;5.70;;;;;;;7.84;81.96;99316.56;79404;1300;3011770;-59
2024/03/18 01:11:55;;;;;;;9.50;6.00;;;;;;;7.59;82.78;99317.68;78296;1296;3028374;-59
2024/03/18 01:14:22;;;;;;;13.30;6.50;;;;;;;7.33;83.99;99320.89;79324;1295;3012946;-57
2024/03/18 01:16:49;;;;;;;8.80;6.00;;;;;;;7.15;85.15;99317.09;79365;1301;3013105;-57
2024/03/18 01:19:17;;;;;;;10.20;6.90;;;;;;;7.03;85.73;99317.99;78159;1301;3027430;-57
2024/03/18 01:21:44;;;;;;;13.00;7.90;;;;;;;6.87;86.77;99316.67;79402;1295;3018973;-58
2024/03/18 01:24:11;;;;;;;9.90;5.50;;;;;;;6.97;86.79;99312.20;79337;1295;3012032;-58
2024/03/18 01:26:40;;;;;;;18.60;10.10;;;;;;;7.51;84.76;99312.86;78118;1301;3049891;-60
2024/03/18 01:29:06;;;;;;;17.90;9.60;;;;;;;7.84;82.73;99314.50;79243;1296;3012750;-57
2024/03/18 01:31:33;;;;;;;16.40;9.20;;;;;;;7.76;82.90;99311.39;79275;1301;3011450;-57
2024/03/18 01:34:04;;;;;;;13.90;9.10;;;;;;;7.70;82.67;99308.24;78145;1299;3026043;-58
2024/03/18 01:36:33;;;;;;;14.60;8.10;;;;;;;7.64;82.89;99310.83;79397;1301;3012808;-57
2024/03/18 01:39:01;;;;;;;11.80;7.20;;;;;;;7.43;83.44;99311.48;78060;1301;3053054;-58
2024/03/18 01:41:27;;;;;;;12.00;7.00;;;;;;;7.38;84.19;99308.10;79482;1300;3013449;-58
2024/03/18 01:43:54;;;;;;;13.80;6.90;;;;;;;7.41;83.59;99305.54;79264;1300;3011675;-60
2024/03/18 01:46:22;;;;;;;11.50;7.60;;;;;;;7.34;83.45;99304.61;78007;1302;3028688;-59
2024/03/18 01:48:48;;;;;;;9.10;5.40;;;;;;;7.25;83.78;99305.58;79368;1301;3012859;-57
2024/03/18 01:51:15;;;;;;;10.70;6.30;;;;;;;7.68;82.71;99301.18;79527;1302;3011600;-57
2024/03/18 01:53:43;;;;;;;11.10;5.50;;;;;;;8.11;80.73;99300.03;78115;1301;3025869;-57
2024/03/18 01:56:09;;;;;;;10.10;6.20;;;;;;;8.10;80.08;99297.23;79275;1301;3013331;-57
2024/03/18 01:58:41;;;;;;;11.90;6.90;;;;;;;7.97;80.19;99299.86;79333;1299;3011871;-60
2024/03/18 02:01:09;;;;;;;10.70;6.90;;;;;;;7.71;80.46;99298.58;78034;1300;3050189;-60
2024/03/18 02:03:36;;;;;;;10.70;6.60;;;;;;;7.49;81.69;99296.89;79316;1301;3013349;-57
2024/03/18 02:06:03;;;;;;;11.80;6.70;;;;;;;7.29;82.42;99294.09;79295;1300;3011593;-58
2024/03/18 02:08:31;;;;;;;12.30;6.40;;;;;;;7.19;83.15;99291.98;78082;1301;3053002;-58
2024/03/18 02:10:58;;;;;;;11.00;7.20;;;;;;;7.05;83.68;99292.64;79191;1297;3013663;-59
2024/03/18 02:13:25;;;;;;;10.80;7.00;;;;;;;6.91;84.25;99288.44;79509;1295;3013595;-58
2024/03/18 02:15:53;;;;;;;8.20;5.10;;;;;;;6.83;84.89;99287.12;78037;1301;3025841;-58
2024/03/18 02:18:19;;;;;;;10.20;5.60;;;;;;;7.07;84.08;99287.48;79328;1301;3018350;-58
2024/03/18 02:20:46;;;;;;;8.00;5.70;;;;;;;7.31;82.87;99286.86;79302;1298;3011611;-57
2024/03/18 02:23:14;;;;;;;12.60;6.50;;;;;;;7.41;82.45;99284.09;78095;1295;3026627;-57
2024/03/18 02:25:42;;;;;;;11.00;6.60;;;;;;;7.08;83.26;99288.83;79362;1301;3013065;-57
2024/03/18 02:28:09;;;;;;;11.20;6.30;;;;;;;6.96;84.18;99288.02;79299;1295;3013437;-58
2024/03/18 02:30:37;;;;;;;9.50;5.90;;;;;;;6.73;85.02;99296.62;78061;1301;3051200;-58
2024/03/18 02:33:04;;;;;;;10.00;6.40;;;;;;;6.75;85.04;99287.15;79565;1300;3018770;-59
2024/03/18 02:35:30;;;;;;;10.60;7.00;;;;;;;6.58;85.78;99291.05;79349;1301;3013303;-58
2024/03/18 02:37:58;;;;;;;13.30;6.40;;;;;;;6.47;86.17;99290.67;78380;1299;3025954;-58
2024/03/18 02:40:25;;;;;;;8.90;6.20;;;;;;;6.41;86.79;99288.02;79453;1295;3013731;-63
2024/03/18 02:42:51;;;;;;;12.80;6.50;;;;;;;6.67;86.52;99284.86;79412;1295;3013906;-58
2024/03/18 02:45:19;;;;;;;10.50;6.60;;;;;;;7.26;83.84;99278.71;77992;1300;3028943;-57
2024/03/18 02:47:46;;;;;;;9.70;5.80;;;;;;;7.16;82.68;99277.45;79572;1298;3018819;-58
2024/03/18 02:50:14;;;;;;;11.30;6.30;;;;;;;6.94;83.25;99282.92;79466;1301;3011637;-56
2024/03/18 02:52:43;;;;;;;11.20;6.30;;;;;;;6.75;84.04;99277.02;77982;1298;3052045;-58
2024/03/18 02:55:10;;;;;;;9.80;6.30;;;;;;;6.62;84.50;99276.59;79183;1296;3014978;-60
2024/03/18 02:57:36;;;;;;;12.30;8.00;;;;;;;6.52;84.89;99280.17;79259;1295;3011629;-58
2024/03/18 03:00:06;;;;;;;12.50;7.40;;;;;;;6.39;85.81;99275.95;78030;1299;3050401;-59
2024/03/18 03:02:33;;;;;;;10.50;7.10;;;;;;;6.26;86.56;99276.72;79351;1298;3015567;-58
2024/03/18 03:05:00;;;;;;;10.50;5.70;;;;;;;6.16;87.31;99276.44;79296;1295;3012341;-58
2024/03/18 03:07:28;;;;;;;10.40;5.90;;;;;;;6.66;85.81;99274.50;77988;1296;3052249;-57
2024/03/18 03:09:55;;;;;;;9.00;5.20;;;;;;;7.19;82.85;99266.20;79249;1296;3021240;-57
2024/03/18 03:12:23;;;;;;;13.10;6.30;;;;;;;7.32;81.44;99265.70;79515;1298;3011718;-58
2024/03/18 03:14:51;;;;;;;11.70;6.60;;;;;;;7.23;81.16;99266.69;78014;1301;3049025;-58
2024/03/18 03:17:18;;;;;;;10.60;6.90;;;;;;;7.02;81.86;99270.86;79466;1298;3013524;-58
2024/03/18 03:19:44;;;;;;;12.30;7.00;;;;;;;6.61;83.04;99272.98;79342;1300;3011783;-57
2024/03/18 03:22:12;;;;;;;14.00;7.70;;;;;;;6.41;84.42;99274.96;78059;1296;3028440;-59
2024/03/18 03:24:40;;;;;;;11.80;7.20;;;;;;;6.40;84.50;99273.95;79373;1296;3021099;-58
2024/03/18 03:27:06;;;;;;;12.60;7.70;;;;;;;6.32;84.83;99270.51;79311;1295;3013938;-59
2024/03/18 03:29:34;;;;;;;8.40;5.00;;;;;;;6.34;84.69;99275.42;78122;1301;3049559;-61
2024/03/18 03:32:01;;;;;;;10.70;5.50;;;;;;;6.78;83.53;99269.21;79207;1299;3012891;-56
2024/03/18 03:34:28;;;;;;;9.90;6.30;;;;;;;7.23;81.20;99270.16;79312;1297;3011562;-58
2024/03/18 03:36:56;;;;;;;10.10;6.60;;;;;;;7.24;79.99;99273.58;78094;1301;3026420;-58
2024/03/18 03:39:24;;;;;;;11.10;6.90;;;;;;;7.13;79.89;99273.77;79301;1295;3013545;-60
2024/03/18 03:41:51;;;;;;;10.50;7.20;;;;;;;7.00;80.08;99272.84;79460;1295;3013195;-59
2024/03/18 03:44:18;;;;;;;10.40;6.20;;;;;;;6.76;80.71;99273.50;77987;1300;3049302;-58
2024/03/18 03:46:49;;;;;;;12.40;7.20;;;;;;;6.62;81.33;99275.05;79414;1299;3021419;-59
2024/03/18 03:49:17;;;;;;;11.20;6.20;;;;;;;6.53;82.01;99277.52;78232;1301;3069252;-57
2024/03/18 03:51:44;;;;;;;9.50;6.40;;;;;;;6.34;82.74;99277.36;79243;1295;3013221;-58
2024/03/18 03:54:10;;;;;;;10.50;6.80;;;;;;;6.30;83.02;99277.58;79219;1300;3013392;-59
2024/03/18 03:56:38;;;;;;;17.40;6.50;;;;;;;6.20;82.99;99280.63;78127;1295;3026107;-57
2024/03/18 03:59:04;;;;;;;6.80;4.40;;;;;;;6.08;84.19;99276.63;79374;1301;3013664;-57
2024/03/18 04:01:31;;;;;;;8.30;4.80;;;;;;;6.57;83.24;99276.80;79327;1301;3013103;-58
2024/03/18 04:03:59;;;;;;;7.50;4.80;;;;;;;7.09;80.41;99273.27;78339;1294;3026645;-58
2024/03/18 04:06:25;;;;;;;8.70;5.40;;;;;;;7.27;79.46;99272.59;79523;1295;3013657;-57
2024/03/18 04:08:52;;;;;;;10.50;5.60;;;;;;;7.22;79.41;99271.45;79226;1300;3012837;-59
2024/03/18 04:11:20;;;;;;;9.30;6.30;;;;;;;7.08;79.67;99272.79;77980;1296;3028194;-57
2024/03/18 04:13:47;;;;;;;9.60;5.60;;;;;;;6.77;80.69;99275.54;79386;1295;3013601;-58
2024/03/18 04:16:14;;;;;;;10.10;6.20;;;;;;;6.69;81.18;99279.75;79385;1300;3011693;-62
2024/03/18 04:18:43;;;;;;;10.60;6.00;;;;;;;6.53;81.96;99276.33;78044;1296;3068320;-59
2024/03/18 04:21:10;;;;;;;10.30;6.00;;;;;;;6.38;82.85;99279.98;79418;1296;3013219;-59
2024/03/18 04:23:37;;;;;;;11.20;6.60;;;;;;;6.35;83.52;99277.52;79290;1295;3013343;-59
2024/03/18 04:26:08;;;;;;;8.60;4.70;;;;;;;6.11;84.41;99276.17;77975;1296;3053106;-59
2024/03/18 04:28:35;;;;;;;11.80;6.10;;;;;;;6.48;83.88;99276.20;79301;1300;3012558;-59
2024/03/18 04:31:07;;;;;;;9.60;6.20;;;;;;;6.81;82.03;99272.73;78770;1295;3011658;-58
2024/03/18 04:33:34;;;;;;;10.30;6.20;;;;;;;6.85;81.70;99275.34;79214;1300;3013769;-59
2024/03/18 04:36:03;;;;;;;10.60;7.00;;;;;;;6.68;82.33;99276.14;78119;1298;3026945;-58
2024/03/18 04:38:29;;;;;;;13.50;6.70;;;;;;;6.48;83.15;99280.73;79541;1296;3012914;-57
2024/03/18 04:40:59;;;;;;;11.50;7.70;;;;;;;6.22;84.47;99282.13;79379;1296;3011483;-58
2024/03/18 04:43:27;;;;;;;12.60;7.80;;;;;;;5.98;86.06;99281.96;78114;1296;3053136;-59
2024/03/18 04:45:53;;;;;;;11.40;8.10;;;;;;;5.78;87.91;99282.78;79404;1299;3012930;-59
2024/03/18 04:48:20;;;;;;;10.20;6.40;;;;;;;5.68;88.85;99282.52;79294;1300;3011647;-59
2024/03/18 04:50:49;;;;;;;11.10;6.80;;;;;;;6.08;88.24;99281.33;78203;1298;3028410;-62
2024/03/18 04:53:15;;;;;;;14.50;7.20;;;;;;;6.46;86.32;99286.39;79236;1296;3014938;-59
2024/03/18 04:55:42;;;;;;;10.00;6.80;;;;;;;6.50;85.63;99285.86;79336;1295;3013614;-60
2024/03/18 04:58:10;;;;;;;11.20;6.90;;;;;;;6.43;85.90;99288.11;78226;1295;3052902;-59
2024/03/18 05:00:36;;;;;;;12.60;7.10;;;;;;;6.24;86.20;99287.73;79413;1295;3013546;-57
2024/03/18 05:03:03;;;;;;;13.00;7.50;;;;;;;6.06;87.60;99289.23;79397;1301;3011775;-57
2024/03/18 05:05:31;;;;;;;10.30;7.30;;;;;;;5.89;88.83;99293.28;78208;1301;3026673;-59
2024/03/18 05:07:58;;;;;;;12.60;8.20;;;;;;;5.78;89.78;99293.08;79412;1295;3013877;-57
2024/03/18 05:10:26;;;;;;;11.50;6.40;;;;;;;5.81;90.38;99296.60;79254;1299;3013627;-59
2024/03/18 05:12:59;;;;;;;12.10;7.20;;;;;;;6.14;89.61;99293.75;78006;1300;3052006;-58
2024/03/18 05:15:26;;;;;;;12.10;6.70;;;;;;;6.49;87.81;99295.80;79428;1295;3011891;-60
2024/03/18 05:17:54;;;;;;;9.40;6.20;;;;;;;6.42;86.99;99299.83;78174;1300;3026311;-64
2024/03/18 05:20:21;;;;;;;9.90;6.80;;;;;;;6.39;86.70;99301.33;79346;1300;3013129;-60
2024/03/18 05:22:49;;;;;;;13.80;8.50;;;;;;;6.28;86.52;99304.77;79203;1295;3011711;-58
2024/03/18 05:25:17;;;;;;;12.90;8.10;;;;;;;5.98;87.03;99309.59;78134;1299;3056974;-59
2024/03/18 05:27:43;;;;;;;12.10;8.60;;;;;;;5.83;87.35;99309.88;79502;1295;3019128;-58
2024/03/18 05:30:11;;;;;;;11.40;8.50;;;;;;;5.50;88.61;99307.79;79319;1295;3011699;-60
2024/03/18 05:32:40;;;;;;;10.50;7.10;;;;;;;5.43;89.49;99311.04;78241;1301;3051659;-59
2024/03/18 05:35:07;;;;;;;9.90;6.90;;;;;;;5.68;88.63;99311.93;79382;1295;3018648;-59
2024/03/18 05:37:34;;;;;;;12.20;7.40;;;;;;;5.93;87.38;99311.90;79236;1295;3011720;-60
2024/03/18 05:40:04;;;;;;;10.10;7.10;;;;;;;5.96;86.56;99312.48;78008;1299;3056680;-59
2024/03/18 05:42:31;;;;;;;9.70;6.70;;;;;;;5.72;87.09;99315.21;79514;1295;3013122;-60
2024/03/18 05:45:00;;;;;;;9.60;6.40;;;;;;;5.71;86.98;99318.21;79135;1295;3013105;-58
2024/03/18 05:47:27;;;;;;;10.30;6.80;;;;;;;5.27;88.56;99325.60;79701;1301;3012916;-60
2024/03/18 05:49:54;;;;;;;11.20;6.60;;;;;;;5.09;89.58;99324.94;79465;1300;3011612;-59
2024/03/18 05:52:23;;;;;;;7.30;4.30;;;;;;;4.92;90.90;99323.00;78249;1301;3029303;-61
2024/03/18 05:54:50;;;;;;;6.10;4.10;;;;;;;5.47;90.39;99316.43;79473;1295;3013160;-59
2024/03/18 05:57:17;;;;;;;7.60;4.80;;;;;;;5.51;88.69;99323.91;79715;1295;3013264;-59
2024/03/18 05:59:45;;;;;;;7.70;4.70;;;;;;;5.51;88.81;99324.95;78275;1295;3053279;-59
2024/03/18 06:02:11;;;;;;;9.50;5.80;;;;;;;5.61;87.97;99327.67;79615;1301;3012640;-59
2024/03/18 06:04:38;;;;;;;9.80;5.90;;;;;;;5.33;88.76;99328.15;79596;1298;3011726;-57
2024/03/18 06:07:06;;;;;;;10.30;5.90;;;;;;;5.01;90.30;99328.40;78611;1300;3025954;-58
2024/03/18 06:09:32;;;;;;;9.10;5.80;;;;;;;4.91;90.75;99328.95;79869;1295;3013701;-59
2024/03/18 06:11:59;;;;;;;12.40;6.70;;;;;;;4.74;91.52;99328.77;79550;1295;3012977;-60
2024/03/18 06:14:27;;;;;;;8.60;5.10;;;;;;;4.86;91.81;99329.85;78401;1301;3027989;-59
2024/03/18 06:16:53;;;;;;;11.70;5.80;;;;;;;5.68;89.20;99328.08;79613;1297;3012965;-60
2024/03/18 06:19:21;;;;;;;9.70;6.00;;;;;;;5.97;86.25;99330.85;79289;1300;3012718;-58
2024/03/18 06:21:51;;;;;;;7.70;5.40;;;;;;;5.66;85.89;99332.84;78051;1295;3069012;-57
2024/03/18 06:24:22;;;;;;;10.50;6.00;;;;;;;5.54;86.52;99334.02;79348;1295;3012987;-58
2024/03/18 06:26:50;;;;;;;11.30;5.80;;;;;;;5.18;88.17;99332.40;78856;1298;3056607;-60
2024/03/18 06:29:17;;;;;;;12.00;6.00;;;;;;;5.10;88.64;99332.17;79431;1295;3013587;-59
2024/03/18 06:31:43;;;;;;;9.20;6.30;;;;;;;5.07;89.54;99330.94;79465;1295;3011606;-58
2024/03/18 06:34:11;;;;;;;12.00;6.70;;;;;;;4.95;90.08;99331.41;78022;1299;3026180;-57
2024/03/18 06:36:38;;;;;;;7.40;4.40;;;;;;;4.89;90.63;99327.63;79359;1300;3013503;-57
2024/03/18 06:39:08;;;;;;;8.60;5.60;;;;;;;5.47;89.44;99324.98;79199;1300;3013464;-59
2024/03/18 06:41:36;;;;;;;9.10;5.70;;;;;;;6.00;86.32;99327.40;78183;1295;3056786;-58
2024/03/18 06:44:03;;;;;;;7.50;5.30;;;;;;;5.97;86.12;99332.04;79404;1295;3011705;-57
2024/03/18 06:46:31;;;;;;;13.00;7.10;;;;;;;6.02;85.51;99324.36;79330;1296;3013103;-58
2024/03/18 06:48:59;;;;;;;10.20;7.00;;;;;;;6.05;85.53;99325.64;78176;1295;3053257;-58
2024/03/18 06:51:26;;;;;;;13.10;6.20;;;;;;;5.84;85.62;99332.43;79304;1295;3013658;-58
2024/03/18 06:53:52;;;;;;;13.60;6.70;;;;;;;5.45;87.40;99326.75;79309;1300;3011612;-58
2024/03/18 06:56:21;;;;;;;12.60;6.90;;;;;;;5.40;88.55;99330.81;78075;1299;3027893;-60
2024/03/18 06:58:48;;;;;;;11.90;7.80;;;;;;;5.41;87.41;99332.33;79218;1295;3013726;-58
2024/03/18 07:01:15;;;;;;;10.60;5.60;;;;;;;5.34;88.37;99330.19;79394;1295;3012886;-59
2024/03/18 07:03:43;;;;;;;10.50;6.60;;;;;;;5.58;87.96;99333.02;78083;1300;3052780;-61
2024/03/18 07:06:09;;;;;;;10.30;6.30;;;;;;;5.99;86.60;99333.90;79453;1295;3013137;-59
2024/03/18 07:08:36;;;;;;;9.90;7.10;;;;;;;5.93;85.86;99330.48;79316;1300;3011833;-60
2024/03/18 07:11:04;;;;;;;14.90;6.70;;;;;;;5.85;86.54;99330.78;77944;1301;3027241;-58
2024/03/18 07:13:30;;;;;;;9.70;6.70;;;;;;;5.71;87.16;99328.64;79314;1295;3013592;-59
2024/03/18 07:15:58;;;;;;;12.00;7.40;;;;;;;5.49;88.41;99327.66;79147;1295;3013195;-58
2024/03/18 07:18:26;;;;;;;12.90;7.70;;;;;;;5.25;88.96;99327.60;78045;1301;3052605;-61
2024/03/18 07:20:53;;;;;;;12.70;7.70;;;;;;;5.18;88.76;99319.54;79273;1300;3018598;-59
2024/03/18 07:23:21;;;;;;;8.20;5.70;;;;;;;5.23;89.08;99320.73;79459;1300;3011741;-59
2024/03/18 07:25:50;;;;;;;13.50;6.10;;;;;;;5.78;86.69;99321.72;78083;1299;3056310;-60
2024/03/18 07:28:17;;;;;;;10.50;7.80;;;;;;;6.25;83.32;99319.36;79362;1295;3013162;-58
2024/03/18 07:30:47;;;;;;;13.00;8.50;;;;;;;6.21;81.51;99316.03;79209;1296;3011446;-59
2024/03/18 07:33:15;;;;;;;10.90;8.60;;;;;;;6.16;82.01;99317.51;78004;1300;3053339;-60
2024/03/18 07:35:42;;;;;;;11.70;8.30;;;;;;;6.15;81.83;99309.89;79252;1300;3012915;-61
2024/03/18 07:38:09;;;;;;;12.70;8.20;;;;;;;6.11;82.16;99309.89;79303;1301;3011741;-57
2024/03/18 07:40:37;;;;;;;9.80;8.10;;;;;;;6.08;82.01;99310.02;78235;1295;3056063;-59
2024/03/18 07:43:05;;;;;;;12.40;8.20;;;;;;;5.98;82.30;99307.15;79517;1295;3013242;-59
2024/03/18 07:45:32;;;;;;;12.80;7.50;;;;;;;5.86;82.66;99309.20;79437;1295;3013172;-59
2024/03/18 07:48:04;;;;;;;14.70;7.10;;;;;;;5.85;82.87;99305.10;78364;1300;3051398;-59
2024/03/18 07:50:34;;;;;;;10.50;7.60;;;;;;;5.88;82.73;99300.23;79490;1295;3011642;-58
2024/03/18 07:53:04;;;;;;;6.10;4.80;;;;;;;5.86;82.88;99299.33;78609;1296;3068037;-61
2024/03/18 07:55:31;;;;;;;5.90;4.50;;;;;;;6.46;80.99;99294.72;79576;1297;3011329;-61
2024/03/18 07:57:58;;;;;;;7.40;5.00;;;;;;;6.92;78.16;99293.80;79858;1296;3012732;-58
2024/03/18 08:00:25;;;;;;;8.80;5.50;;;;;;;6.98;77.73;99290.75;78281;1295;3053598;-59
2024/03/18 08:02:52;;;;;;;6.80;5.20;;;;;;;6.94;77.75;99293.36;79404;1300;3012810;-59
2024/03/18 08:05:19;;;;;;;8.20;4.50;;;;;;;6.99;76.95;99293.30;79532;1301;3011691;-60
2024/03/18 08:07:47;;;;;;;9.40;4.90;;;;;;;6.76;77.32;99288.63;78807;1296;3025763;-64
2024/03/18 08:10:13;;;;;;;8.90;5.40;;;;;;;6.68;78.39;99295.10;80164;1295;3018674;-59
2024/03/18 08:12:40;;;;;;;6.80;4.50;;;;;;;6.68;78.20;99291.47;79515;1296;3013029;-58
2024/03/18 08:15:10;;;;;;;6.90;5.00;;;;;;;6.58;78.31;99292.95;78365;1298;3028818;-60
2024/03/18 08:17:37;;;;;;;10.60;9.00;;;;;;;6.40;79.02;99293.44;79651;1296;3013362;-61
2024/03/18 08:20:04;;;;;;;6.50;4.70;;;;;;;6.45;78.96;99294.09;79382;1295;3013697;-59
2024/03/18 08:22:32;;;;;;;11.90;5.00;;;;;;;6.42;79.30;99292.13;78331;1298;3068710;-60
2024/03/18 08:24:59;;;;;;;13.30;4.60;;;;;;;6.37;79.45;99295.69;79540;1295;3013462;-62
2024/03/18 08:27:29;;;;;;;4.60;3.50;;;;;;;6.29;79.84;99294.81;79359;1300;3011521;-58
2024/03/18 08:29:57;;;;;;;5.70;4.30;;;;;;;6.45;79.67;99295.31;77966;1298;3053410;-59
2024/03/18 08:32:24;;;;;;;6.00;4.40;;;;;;;6.44;79.79;99293.62;79355;1300;3012882;-58
2024/03/18 08:34:50;;;;;;;8.40;4.90;;;;;;;6.58;79.57;99294.37;79392;1300;3011547;-60
2024/03/18 08:37:20;;;;;;;5.80;3.90;;;;;;;7.19;78.19;99285.52;78199;1295;3026370;-59
2024/03/18 08:39:47;;;;;;;7.40;4.50;;;;;;;7.59;76.22;99287.54;80767;1295;3011383;-60
2024/03/18 08:42:14;;;;;;;6.30;5.20;;;;;;;7.86;75.62;99286.85;81896;1295;3011345;-59
2024/03/18 08:44:43;;;;;;;6.20;4.70;;;;;;;8.06;74.99;99282.14;80611;1297;3053067;-58
2024/03/18 08:47:09;;;;;;;8.70;4.70;;;;;;;7.88;74.89;99282.91;81916;1300;3018399;-58
2024/03/18 08:49:36;;;;;;;7.00;4.70;;;;;;;8.01;74.68;99283.11;80548;1298;3011546;-59
2024/03/18 08:52:04;;;;;;;7.30;3.60;;;;;;;8.17;73.77;99277.90;80677;1295;3026260;-59
2024/03/18 08:54:32;;;;;;;5.80;3.50;;;;;;;7.89;74.53;99281.77;80310;1298;3013211;-59
2024/03/18 08:56:59;;;;;;;7.40;4.50;;;;;;;7.91;74.55;99282.23;79781;1297;3012941;-60
2024/03/18 08:59:28;;;;;;;4.90;4.00;;;;;;;7.85;75.72;99280.42;78406;1298;3053470;-60
2024/03/18 09:01:55;;;;;;;5.30;4.10;;;;;;;8.07;74.50;99278.77;79581;1295;3013140;-58
2024/03/18 09:04:21;;;;;;;5.40;3.70;;;;;;;8.07;74.49;99278.41;79440;1299;3012025;-61
2024/03/18 09:06:50;;;;;;;4.70;3.60;;;;;;;7.96;74.66;99277.44;78442;1297;3069470;-59
2024/03/18 09:09:18;;;;;;;10.00;4.40;;;;;;;8.14;74.42;99275.09;79537;1295;3012809;-59
2024/03/18 09:11:45;;;;;;;18.50;7.40;;;;;;;8.36;74.14;99270.89;79375;1295;3012113;-59
2024/03/18 09:14:13;;;;;;;11.70;5.20;;;;;;;8.47;73.41;99274.01;78036;1300;3053291;-57
2024/03/18 09:16:40;;;;;;;19.70;5.40;;;;;;;8.56;72.77;99268.13;79586;1301;3014988;-59
2024/03/18 09:19:07;;;;;;;22.30;7.40;;;;;;;8.69;71.66;99261.98;79645;1299;3011633;-57
2024/03/18 09:21:35;;;;;;;13.50;5.90;;;;;;;8.79;71.55;99262.80;78413;1296;3069548;-57
2024/03/18 09:24:03;;;;;;;11.50;5.50;;;;;;;9.02;71.37;99256.96;79231;1296;3015134;-58
2024/03/18 09:26:30;;;;;;;10.50;6.10;;;;;;;9.16;70.91;99255.33;79383;1295;3011648;-59
2024/03/18 09:28:58;;;;;;;18.10;6.30;;;;;;;9.28;70.31;99256.86;78077;1295;3053162;-59
2024/03/18 09:31:25;;;;;;;9.40;5.10;;;;;;;9.42;69.42;99259.36;79374;1298;3013140;-63
2024/03/18 09:33:52;;;;;;;6.90;5.10;;;;;;;9.54;69.67;99258.89;79331;1301;3011817;-59
2024/03/18 09:36:19;;;;;;;10.30;5.70;;;;;;;9.62;69.98;99254.17;78064;1296;3026615;-58
2024/03/18 09:38:46;;;;;;;9.70;6.20;;;;;;;9.77;69.56;99251.70;79468;1301;3013724;-58
2024/03/18 09:41:16;;;;;;;12.10;7.60;;;;;;;9.83;68.82;99255.86;79259;1298;3011562;-57
2024/03/18 09:43:44;;;;;;;10.00;6.90;;;;;;;9.85;68.55;99253.15;78288;1300;3053222;-61
2024/03/18 09:46:11;;;;;;;9.50;6.90;;;;;;;9.75;68.25;99250.94;79266;1301;3011450;-59
2024/03/18 09:48:37;;;;;;;17.40;7.90;;;;;;;9.82;68.12;99247.37;79456;1301;3011663;-58
2024/03/18 09:51:08;;;;;;;11.10;6.40;;;;;;;9.84;67.45;99247.41;78512;1295;3028231;-60
2024/03/18 09:53:34;;;;;;;8.40;5.40;;;;;;;9.81;66.32;99243.78;79734;1298;3012050;-60
2024/03/18 09:56:01;;;;;;;14.00;5.40;;;;;;;9.69;65.21;99246.40;79444;1302;3011710;-60
2024/03/18 09:58:29;;;;;;;8.30;4.80;;;;;;;9.69;64.09;99248.51;78215;1295;3053339;-62
2024/03/18 10:00:56;;;;;;;7.00;4.50;;;;;;;9.67;63.75;99249.70;79805;1298;3020665;-62
2024/03/18 10:03:22;;;;;;;5.80;3.80;;;;;;;9.74;62.90;99249.29;79748;1300;3011778;-61
2024/03/18 10:05:51;;;;;;;7.80;3.80;;;;;;;9.53;62.02;99249.62;78375;1295;3068034;-61
2024/03/18 10:08:21;;;;;;;5.00;3.50;;;;;;;9.37;62.32;99246.41;79377;1295;3012800;-59
2024/03/18 10:10:50;;;;;;;7.30;4.40;;;;;;;9.41;61.25;99247.73;78841;1295;3011623;-60
2024/03/18 10:13:23;;;;;;;5.40;3.50;;;;;;;9.49;61.91;99242.34;79606;1298;3013240;-61
2024/03/18 10:15:50;;;;;;;5.20;3.40;;;;;;;9.53;61.62;99240.70;77728;1299;3049211;-58
2024/03/18 10:18:17;;;;;;;3.90;2.60;;;;;;;9.58;61.16;99235.69;79500;1297;3012746;-58
2024/03/18 10:20:44;;;;;;;7.30;3.40;;;;;;;9.46;61.82;99232.73;79472;1295;3011846;-58
2024/03/18 10:23:13;;;;;;;7.00;3.70;;;;;;;9.37;63.83;99235.04;78497;1295;3026449;-61
2024/03/18 10:25:40;;;;;;;4.40;3.40;;;;;;;9.42;64.28;99228.77;79670;1297;3013157;-60
2024/03/18 10:28:07;;;;;;;3.80;2.80;;;;;;;9.48;63.69;99226.86;79495;1300;3011463;-59
2024/03/18 10:30:37;;;;;;;3.80;2.80;;;;;;;9.24;64.81;99221.98;78450;1300;3048824;-59
2024/03/18 10:33:06;;;;;;;5.10;3.30;;;;;;;9.24;65.66;99225.10;79707;1299;3013371;-62
2024/03/18 10:35:34;;;;;;;4.40;2.80;;;;;;;9.44;65.63;99214.69;78188;1296;3026361;-59
2024/03/18 10:38:02;;;;;;;6.10;3.50;;;;;;;9.69;65.61;99210.21;79403;1300;3013463;-58
2024/03/18 10:40:36;;;;;;;5.00;3.40;;;;;;;9.93;64.47;99202.80;79505;1295;3011578;-59
2024/03/18 10:43:11;;;;;;;5.10;3.20;;;;;;;10.21;63.45;99205.80;78332;1300;3049808;-59
2024/03/18 10:45:42;;;;;;;5.70;3.40;;;;;;;10.31;63.01;99191.13;78911;1301;3011606;-59
2024/03/18 10:48:11;;;;;;;6.30;3.60;;;;;;;10.21;62.76;99192.84;79503;1296;3012285;-59
2024/03/18 10:50:39;;;;;;;4.40;2.90;;;;;;;9.94;62.68;99191.73;78359;1300;3049878;-57
2024/03/18 10:53:18;;;;;;;5.30;3.40;;;;;;;9.81;62.54;99193.05;79333;1300;3019075;-59
2024/03/18 10:55:52;;;;;;;5.30;3.60;;;;;;;9.64;63.40;99191.95;78155;1300;3068895;-57
2024/03/18 10:58:29;;;;;;;4.90;3.10;;;;;;;9.68;64.18;99183.48;79389;1295;3011708;-59
2024/03/18 11:00:58;;;;;;;5.00;3.70;;;;;;;9.73;64.06;99181.47;78157;1300;3057644;-60
2024/03/18 11:03:26;;;;;;;5.30;3.30;;;;;;;9.65;64.77;99178.30;79344;1296;3013542;-65
2024/03/18 11:05:57;;;;;;;7.60;4.30;;;;;;;9.53;65.38;99176.21;78910;1301;3013304;-60
2024/03/18 11:08:25;;;;;;;6.50;4.60;;;;;;;9.54;65.67;99176.36;79314;1295;3013106;-61
2024/03/18 11:10:55;;;;;;;6.50;4.10;;;;;;;9.71;65.22;99168.66;79165;1298;3011900;-60
2024/03/18 11:13:32;;;;;;;8.30;4.10;;;;;;;9.82;65.10;99169.52;79389;1299;3013608;-61
2024/03/18 11:16:08;;;;;;;6.90;4.00;;;;;;;9.72;64.66;99171.58;78238;1300;3052692;-59
2024/03/18 11:18:44;;;;;;;7.00;3.60;;;;;;;9.73;65.19;99163.61;78788;1295;3012248;-57
2024/03/18 11:21:21;;;;;;;5.70;3.60;;;;;;;9.91;64.39;99163.54;78289;1295;3056766;-58
2024/03/18 11:24:00;;;;;;;7.70;5.10;;;;;;;9.89;64.48;99161.91;78220;1299;3049302;-59